Time;durP1;ratioP1;P1;durP2;ratioP2;P2;SDS_P1;SDS_P2;PMS_P1;PMS_P2;Temp;Humidity;BMP_temperature;BMP_pressure;BME280_temperature;BME280_humidity;BME280_pressure;Samples;Min_cycle;Max_cycle;Signal;HPM_P1;HPM_P2
2023/08/17 08:56:55;;;;;;;;;27.75;26.25;;;;;;;;5104233;27;13510;-69
2023/08/17 08:59:21;;;;;;;;;25.75;25.75;;;;;;;;5110889;28;8792;-72
2023/08/17 09:01:47;;;;;;;;;24.00;23.67;;;;;;;;5106722;28;8813;-73
2023/08/17 09:04:12;;;;;;;;;25.00;25.00;;;;;;;;5106574;28;8864;-73
2023/08/17 09:06:38;;;;;;;;;23.67;23.33;;;;;;;;5106366;28;8853;-74
2023/08/17 09:09:04;;;;;;;;;22.00;22.00;;;;;;;;5106701;28;8804;-73
2023/08/17 09:11:30;;;;;;;;;23.00;22.25;;;;;;;;5106243;28;8804;-73
2023/08/17 09:13:55;;;;;;;;;20.75;20.75;;;;;;;;5106587;28;8818;-74
2023/08/17 09:16:20;;;;;;;;;23.50;23.50;;;;;;;;5105736;28;8824;-74
2023/08/17 09:18:46;;;;;;;;;24.67;24.00;;;;;;;;5107040;28;8864;-74
2023/08/17 09:21:24;;;;;;;;;20.00;20.00;;;;;;;;5104022;28;8816;-74
2023/08/17 09:23:56;;;;;;;;;20.20;20.20;;;;;;;;5105379;28;12415;-73
2023/08/17 09:26:24;;;;;;;;;20.60;20.20;;;;;;;;5105434;28;8820;-74
2023/08/17 09:28:51;;;;;;;;;23.40;21.60;;;;;;;;5105652;28;8836;-74
2023/08/17 09:31:19;;;;;;;;;28.25;28.00;;;;;;;;5105514;27;8781;-74
2023/08/17 09:33:48;;;;;;;;;21.00;20.60;;;;;;;;5106362;28;8805;-74
2023/08/17 09:36:13;;;;;;;;;22.25;22.25;;;;;;;;5106325;28;8924;-72
2023/08/17 09:38:38;;;;;;;;;26.00;25.33;;;;;;;;5105442;28;8822;-72
2023/08/17 09:41:05;;;;;;;;;29.00;27.33;;;;;;;;5106059;28;8887;-70
2023/08/17 09:43:33;;;;;;;;;26.00;24.20;;;;;;;;5084773;28;8833;-69
2023/08/17 09:45:59;;;;;;;;;21.40;21.00;;;;;;;;5085980;28;8814;-69
2023/08/17 09:48:24;;;;;;;;;21.20;21.20;;;;;;;;5085955;28;8802;-68
2023/08/17 09:50:49;;;;;;;;;22.50;21.25;;;;;;;;5062291;27;11887;-69
2023/08/17 09:53:16;;;;;;;;;21.25;21.25;;;;;;;;5059265;28;8801;-69
2023/08/17 09:55:42;;;;;;;;;20.20;20.20;;;;;;;;5049466;28;8865;-71
2023/08/17 09:58:08;;;;;;;;;21.40;21.40;;;;;;;;5045219;28;8804;-70
2023/08/17 10:00:34;;;;;;;;;21.50;21.50;;;;;;;;5045636;28;8815;-68
2023/08/17 10:03:01;;;;;;;;;23.75;23.75;;;;;;;;5045818;28;8866;-68
2023/08/17 10:05:28;;;;;;;;;31.00;28.50;;;;;;;;5045599;28;9688;-69
2023/08/17 10:07:54;;;;;;;;;22.00;21.20;;;;;;;;5050348;28;8805;-67
2023/08/17 10:10:24;;;;;;;;;22.33;22.00;;;;;;;;5052316;28;8810;-66
2023/08/17 10:13:04;;;;;;;;;22.75;21.25;;;;;;;;5047989;28;8831;-67
2023/08/17 10:15:29;;;;;;;;;21.25;20.00;;;;;;;;5051809;28;8863;-69
2023/08/17 10:17:58;;;;;;;;;22.00;21.33;;;;;;;;5043957;28;8792;-68
2023/08/17 10:20:24;;;;;;;;;21.00;20.50;;;;;;;;5040747;28;8784;-70
2023/08/17 10:22:52;;;;;;;;;20.50;20.50;;;;;;;;5037614;28;8932;-67
2023/08/17 10:25:18;;;;;;;;;21.25;21.25;;;;;;;;5037353;28;8816;-67
2023/08/17 10:27:43;;;;;;;;;20.00;20.00;;;;;;;;5031874;28;8818;-66
2023/08/17 10:30:10;;;;;;;;;23.00;22.67;;;;;;;;5028873;28;8835;-68
2023/08/17 10:32:35;;;;;;;;;23.25;22.75;;;;;;;;5029732;28;8808;-68
2023/08/17 10:35:02;;;;;;;;;22.00;20.67;;;;;;;;5035208;28;8891;-70
2023/08/17 10:37:28;;;;;;;;;25.00;25.00;;;;;;;;5051743;28;9659;-70
2023/08/17 10:39:53;;;;;;;;;22.25;22.25;;;;;;;;5051675;28;8977;-68
2023/08/17 10:42:32;;;;;;;;;26.67;26.67;;;;;;;;5051457;28;8925;-68
2023/08/17 10:44:57;;;;;;;;;24.75;23.50;;;;;;;;5051310;28;8810;-67
2023/08/17 10:47:26;;;;;;;;;27.67;27.67;;;;;;;;5049263;28;8828;-68
2023/08/17 10:50:19;;;;;;;;;27.00;26.00;;;;;;;;5051035;28;8839;-67
2023/08/17 10:52:47;;;;;;;;;27.00;27.00;;;;;;;;5050926;28;8793;-67
2023/08/17 10:55:12;;;;;;;;;21.25;20.50;;;;;;;;5050836;28;8841;-67
2023/08/17 10:57:39;;;;;;;;;25.00;23.00;;;;;;;;5050703;28;8956;-66
2023/08/17 11:00:13;;;;;;;;;29.75;28.75;;;;;;;;5050766;28;8805;-66
2023/08/17 11:02:39;;;;;;;;;31.00;29.25;;;;;;;;5049298;28;8883;-66
2023/08/17 11:05:05;;;;;;;;;30.67;29.00;;;;;;;;5050356;28;8793;-67
2023/08/17 11:07:40;;;;;;;;;29.25;27.25;;;;;;;;5050686;28;8824;-66
2023/08/17 11:10:12;;;;;;;;;27.25;27.25;;;;;;;;5050191;28;8813;-67
2023/08/17 11:12:38;;;;;;;;;21.25;21.25;;;;;;;;5049831;28;8835;-65
2023/08/17 11:15:03;;;;;;;;;28.33;28.00;;;;;;;;5050428;28;8829;-68
2023/08/17 11:17:28;;;;;;;;;19.00;19.00;;;;;;;;5050190;28;8951;-68
2023/08/17 11:19:54;;;;;;;;;25.67;24.33;;;;;;;;5049941;28;8797;-70
2023/08/17 11:22:19;;;;;;;;;25.33;25.33;;;;;;;;5050410;28;8928;-68
2023/08/17 11:24:45;;;;;;;;;25.33;25.00;;;;;;;;5054004;28;8907;-68
2023/08/17 11:27:11;;;;;;;;;23.50;23.50;;;;;;;;5070321;28;8782;-67
2023/08/17 11:29:37;;;;;;;;;24.25;23.75;;;;;;;;5070503;28;8775;-70
2023/08/17 11:32:04;;;;;;;;;26.33;24.33;;;;;;;;5070298;28;8877;-71
2023/08/17 11:34:29;;;;;;;;;25.00;25.00;;;;;;;;5070468;28;8822;-73
2023/08/17 11:36:56;;;;;;;;;23.67;19.67;;;;;;;;5061521;28;8819;-68
2023/08/17 11:39:22;;;;;;;;;21.00;21.00;;;;;;;;5049731;28;8919;-72
2023/08/17 11:41:48;;;;;;;;;24.00;24.00;;;;;;;;5049625;28;8896;-71
2023/08/17 11:44:14;;;;;;;;;23.75;20.75;;;;;;;;5049377;28;8809;-72
2023/08/17 11:46:40;;;;;;;;;20.50;20.25;;;;;;;;5047038;28;8789;-71
2023/08/17 11:49:05;;;;;;;;;20.00;18.33;;;;;;;;5037947;28;8812;-71
2023/08/17 11:51:33;;;;;;;;;19.00;19.00;;;;;;;;5030119;28;8925;-73
2023/08/17 11:53:59;;;;;;;;;23.00;23.00;;;;;;;;5030090;28;8803;-72
2023/08/17 11:56:24;;;;;;;;;19.25;19.25;;;;;;;;5041361;28;8845;-72
2023/08/17 11:58:53;;;;;;;;;19.33;19.33;;;;;;;;5049921;28;8897;-74
2023/08/17 12:01:18;;;;;;;;;19.75;19.75;;;;;;;;5032846;28;8804;-70
2023/08/17 12:03:44;;;;;;;;;21.00;21.00;;;;;;;;5049641;28;9559;-73
2023/08/17 12:06:09;;;;;;;;;20.00;20.00;;;;;;;;5049909;28;8805;-71
2023/08/17 12:08:35;;;;;;;;;18.67;18.00;;;;;;;;5049418;28;8828;-68
2023/08/17 12:11:00;;;;;;;;;19.33;18.33;;;;;;;;5048951;28;8781;-68
2023/08/17 12:13:30;;;;;;;;;22.00;22.00;;;;;;;;5049112;28;8813;-68
2023/08/17 12:15:57;;;;;;;;;23.25;22.75;;;;;;;;5043995;28;9695;-70
2023/08/17 12:18:22;;;;;;;;;23.00;20.75;;;;;;;;5037947;28;8821;-70
2023/08/17 12:20:52;;;;;;;;;21.67;20.33;;;;;;;;5049136;28;9071;-70
2023/08/17 12:23:17;;;;;;;;;22.25;22.25;;;;;;;;5042369;28;9586;-71
2023/08/17 12:25:42;;;;;;;;;21.33;21.33;;;;;;;;5049478;28;8793;-66
2023/08/17 12:28:08;;;;;;;;;25.67;24.33;;;;;;;;5049404;28;8793;-66
2023/08/17 12:30:36;;;;;;;;;28.00;26.00;;;;;;;;5048779;28;8828;-66
2023/08/17 12:33:01;;;;;;;;;21.75;21.25;;;;;;;;5048684;28;9598;-66
2023/08/17 12:35:26;;;;;;;;;25.00;24.33;;;;;;;;5048424;28;8833;-66
2023/08/17 12:37:52;;;;;;;;;24.33;23.67;;;;;;;;5048891;28;8802;-66
2023/08/17 12:40:17;;;;;;;;;20.00;20.00;;;;;;;;5048859;28;8805;-67
2023/08/17 12:42:43;;;;;;;;;20.00;20.00;;;;;;;;5048691;28;8785;-66
2023/08/17 12:45:08;;;;;;;;;18.33;18.00;;;;;;;;5048841;28;8907;-65
2023/08/17 12:47:33;;;;;;;;;26.67;23.67;;;;;;;;5047096;28;8797;-65
2023/08/17 12:50:00;;;;;;;;;27.67;26.67;;;;;;;;5046977;28;8839;-66
2023/08/17 12:52:25;;;;;;;;;26.00;25.75;;;;;;;;5044758;28;8824;-67
2023/08/17 12:54:50;;;;;;;;;26.00;25.67;;;;;;;;5048003;28;8825;-69
2023/08/17 12:57:16;;;;;;;;;25.67;25.67;;;;;;;;5048214;28;8811;-65
2023/08/17 12:59:41;;;;;;;;;27.67;26.00;;;;;;;;5048540;28;8897;-66
2023/08/17 13:02:06;;;;;;;;;27.33;25.67;;;;;;;;5048792;28;8886;-67
2023/08/17 13:04:31;;;;;;;;;25.67;24.00;;;;;;;;5047730;28;8916;-66
2023/08/17 13:06:57;;;;;;;;;31.00;29.67;;;;;;;;5047684;28;8805;-66
2023/08/17 13:09:22;;;;;;;;;28.33;28.00;;;;;;;;5048352;28;9582;-67
2023/08/17 13:11:47;;;;;;;;;31.00;28.67;;;;;;;;5047386;28;8931;-66
2023/08/17 13:14:14;;;;;;;;;25.67;25.00;;;;;;;;5047914;28;8821;-66
2023/08/17 13:16:39;;;;;;;;;26.50;25.25;;;;;;;;5048963;28;8825;-67
2023/08/17 13:19:04;;;;;;;;;25.67;25.67;;;;;;;;5049149;28;8890;-67
2023/08/17 13:21:30;;;;;;;;;26.33;25.00;;;;;;;;5049132;28;8785;-67
2023/08/17 13:23:55;;;;;;;;;28.33;27.00;;;;;;;;5048234;28;8832;-67
2023/08/17 13:26:22;;;;;;;;;26.00;26.00;;;;;;;;5047767;28;8885;-67
2023/08/17 13:28:47;;;;;;;;;28.00;26.75;;;;;;;;5047614;28;8801;-68
2023/08/17 13:31:12;;;;;;;;;27.67;27.67;;;;;;;;5047806;28;8835;-68
2023/08/17 13:33:38;;;;;;;;;28.67;28.00;;;;;;;;5047662;28;8801;-66
2023/08/17 13:36:03;;;;;;;;;33.33;30.00;;;;;;;;5046370;28;8871;-65
2023/08/17 13:38:28;;;;;;;;;26.00;25.33;;;;;;;;5046397;28;8847;-65
2023/08/17 13:40:53;;;;;;;;;31.67;29.33;;;;;;;;5048714;28;8801;-64
2023/08/17 13:43:19;;;;;;;;;25.33;24.33;;;;;;;;5051612;28;8801;-65
2023/08/17 13:45:44;;;;;;;;;22.00;21.00;;;;;;;;5051949;28;8890;-65
2023/08/17 13:48:09;;;;;;;;;29.00;27.00;;;;;;;;5052266;28;8785;-65
2023/08/17 13:50:37;;;;;;;;;31.33;30.00;;;;;;;;5052189;28;8919;-65
2023/08/17 13:53:02;;;;;;;;;31.50;30.25;;;;;;;;5052059;28;8872;-65
2023/08/17 13:55:29;;;;;;;;;20.33;20.00;;;;;;;;5052040;28;8980;-66
2023/08/17 13:57:55;;;;;;;;;33.50;28.75;;;;;;;;5052189;28;8797;-66
2023/08/17 14:00:20;;;;;;;;;17.25;12.00;;;;;;;;5051678;28;8809;-66
2023/08/17 14:02:46;;;;;;;;;21.67;19.67;;;;;;;;5050799;28;8883;-66
2023/08/17 14:05:11;;;;;;;;;19.33;18.67;;;;;;;;5051753;28;8813;-67
2023/08/17 14:07:36;;;;;;;;;33.00;30.00;;;;;;;;5051896;28;8801;-66
2023/08/17 14:10:02;;;;;;;;;23.33;23.33;;;;;;;;5052308;28;8819;-67
2023/08/17 14:12:27;;;;;;;;;13.33;13.00;;;;;;;;5052152;28;8793;-67
2023/08/17 14:14:52;;;;;;;;;17.00;15.00;;;;;;;;5051923;28;8813;-68
2023/08/17 14:17:18;;;;;;;;;8.67;8.67;;;;;;;;5052184;28;8949;-67
2023/08/17 14:19:43;;;;;;;;;12.00;10.33;;;;;;;;5050464;28;8817;-67
2023/08/17 14:22:08;;;;;;;;;14.00;14.00;;;;;;;;5051730;28;8828;-67
2023/08/17 14:24:33;;;;;;;;;19.67;18.33;;;;;;;;5051441;28;9939;-67
2023/08/17 14:26:59;;;;;;;;;10.67;9.00;;;;;;;;5051830;28;8801;-67
2023/08/17 14:29:25;;;;;;;;;19.67;18.33;;;;;;;;5050290;28;8809;-67
2023/08/17 14:31:50;;;;;;;;;12.33;11.00;;;;;;;;5051523;28;8824;-67
2023/08/17 14:34:16;;;;;;;;;12.33;12.33;;;;;;;;5051805;28;8785;-67
2023/08/17 14:36:41;;;;;;;;;14.00;12.67;;;;;;;;5051387;28;8858;-66
2023/08/17 14:39:06;;;;;;;;;11.33;9.67;;;;;;;;5051267;28;8812;-67
2023/08/17 14:41:32;;;;;;;;;15.67;14.00;;;;;;;;5050662;28;8813;-67
2023/08/17 14:44:00;;;;;;;;;15.67;13.67;;;;;;;;5051197;28;8809;-67
2023/08/17 14:46:26;;;;;;;;;13.75;12.75;;;;;;;;5051147;28;8824;-66
2023/08/17 14:48:51;;;;;;;;;13.67;13.67;;;;;;;;5051230;28;8894;-67
2023/08/17 14:51:17;;;;;;;;;15.33;14.67;;;;;;;;5049689;28;8809;-71
2023/08/17 14:53:42;;;;;;;;;25.00;23.67;;;;;;;;5050688;28;8913;-71
2023/08/17 14:56:07;;;;;;;;;15.33;15.00;;;;;;;;5051081;28;8837;-72
2023/08/17 14:58:32;;;;;;;;;24.33;24.33;;;;;;;;5051010;28;8813;-70
2023/08/17 15:00:58;;;;;;;;;22.67;22.33;;;;;;;;5050779;28;8974;-72
2023/08/17 15:03:23;;;;;;;;;19.00;17.33;;;;;;;;5050662;28;8813;-71
2023/08/17 15:05:48;;;;;;;;;18.00;15.33;;;;;;;;5050770;28;8878;-73
2023/08/17 15:08:15;;;;;;;;;16.67;16.00;;;;;;;;5051206;28;8867;-72
2023/08/17 15:10:40;;;;;;;;;23.50;19.75;;;;;;;;5050529;28;8782;-74
2023/08/17 15:13:06;;;;;;;;;21.33;18.00;;;;;;;;5050427;28;8820;-74
2023/08/17 15:15:31;;;;;;;;;17.33;17.00;;;;;;;;5050379;28;8832;-71
2023/08/17 15:17:56;;;;;;;;;12.00;12.00;;;;;;;;5050465;28;8774;-71
2023/08/17 15:20:22;;;;;;;;;17.33;16.00;;;;;;;;5049811;28;8793;-72
2023/08/17 15:22:47;;;;;;;;;15.67;15.67;;;;;;;;5050302;28;8817;-71
2023/08/17 15:25:12;;;;;;;;;18.67;17.33;;;;;;;;5049138;28;9554;-70
2023/08/17 15:27:37;;;;;;;;;13.00;13.00;;;;;;;;5050643;28;8816;-71
2023/08/17 15:30:03;;;;;;;;;14.33;13.33;;;;;;;;5050520;28;8870;-69
2023/08/17 15:32:28;;;;;;;;;13.67;13.00;;;;;;;;5050326;28;8824;-70
2023/08/17 15:34:53;;;;;;;;;15.00;15.00;;;;;;;;5048454;28;8837;-71
2023/08/17 15:37:18;;;;;;;;;16.67;16.67;;;;;;;;5045929;28;9578;-71
2023/08/17 15:39:44;;;;;;;;;16.00;15.33;;;;;;;;5029021;28;8989;-71
2023/08/17 15:42:09;;;;;;;;;12.67;12.67;;;;;;;;5030241;28;8823;-70
2023/08/17 15:44:34;;;;;;;;;15.33;14.67;;;;;;;;5028816;28;8815;-70
2023/08/17 15:47:00;;;;;;;;;16.33;16.00;;;;;;;;5030340;28;8787;-70
2023/08/17 15:49:25;;;;;;;;;17.33;16.67;;;;;;;;5030269;28;8780;-70
2023/08/17 20:18:29;;;;;;;;;14.67;14.00;;;;;;;;5087685;27;13465;-68
2023/08/17 20:20:57;;;;;;;;;17.33;17.00;;;;;;;;5037168;28;8907;-70
2023/08/17 20:23:23;;;;;;;;;17.67;17.00;;;;;;;;5035905;28;8842;-69
2023/08/17 20:25:48;;;;;;;;;18.67;18.33;;;;;;;;5035534;28;9027;-69
2023/08/17 20:28:17;;;;;;;;;16.67;15.00;;;;;;;;5036896;28;8820;-68
2023/08/17 20:30:43;;;;;;;;;17.00;15.00;;;;;;;;5043363;28;10112;-71
2023/08/17 20:33:09;;;;;;;;;15.25;14.00;;;;;;;;5046351;28;8866;-68
2023/08/17 20:35:35;;;;;;;;;15.00;15.00;;;;;;;;5046319;28;8838;-67
2023/08/17 20:38:00;;;;;;;;;21.67;16.33;;;;;;;;5046455;28;8828;-69
2023/08/17 20:40:25;;;;;;;;;17.67;17.67;;;;;;;;5046557;28;10469;-71
2023/08/17 20:42:50;;;;;;;;;22.33;21.33;;;;;;;;5043719;28;10064;-72
2023/08/17 20:45:16;;;;;;;;;13.67;13.67;;;;;;;;5046798;28;9507;-68
2023/08/17 20:47:42;;;;;;;;;18.00;18.00;;;;;;;;5046168;28;8850;-67
2023/08/17 20:50:07;;;;;;;;;15.33;15.33;;;;;;;;5046197;28;8812;-67
2023/08/17 20:52:32;;;;;;;;;15.00;14.00;;;;;;;;5046621;28;8807;-66
2023/08/17 20:54:58;;;;;;;;;15.00;13.67;;;;;;;;5046379;28;9600;-69
2023/08/17 20:57:23;;;;;;;;;16.33;16.00;;;;;;;;5046010;28;8816;-69
2023/08/17 20:59:49;;;;;;;;;15.33;15.00;;;;;;;;5046173;28;8830;-68
2023/08/17 21:02:14;;;;;;;;;11.33;10.33;;;;;;;;5042488;28;10025;-66
2023/08/17 21:04:40;;;;;;;;;16.33;16.33;;;;;;;;5044342;28;8815;-67
2023/08/17 21:07:05;;;;;;;;;17.67;17.33;;;;;;;;5042080;28;8886;-67
2023/08/17 21:09:30;;;;;;;;;16.67;16.00;;;;;;;;5045464;28;8840;-67
2023/08/17 21:11:58;;;;;;;;;18.00;15.00;;;;;;;;5046103;28;8922;-67
2023/08/17 21:14:23;;;;;;;;;19.75;16.75;;;;;;;;5044666;28;8800;-68
2023/08/17 21:16:48;;;;;;;;;19.33;18.00;;;;;;;;5045312;28;8840;-71
2023/08/17 21:19:13;;;;;;;;;16.33;15.67;;;;;;;;5045377;28;8882;-68
2023/08/17 21:21:39;;;;;;;;;12.67;12.67;;;;;;;;5045033;28;8909;-70
2023/08/17 21:24:04;;;;;;;;;22.00;21.00;;;;;;;;5045227;28;8815;-69
2023/08/17 21:26:29;;;;;;;;;25.33;23.00;;;;;;;;5045324;28;8816;-68
2023/08/17 21:28:55;;;;;;;;;24.00;23.33;;;;;;;;5036853;28;9671;-67
2023/08/17 21:31:20;;;;;;;;;30.33;28.00;;;;;;;;5032042;28;9534;-70
2023/08/17 21:33:45;;;;;;;;;26.67;24.67;;;;;;;;5032393;28;8815;-67
2023/08/17 21:36:11;;;;;;;;;23.67;22.33;;;;;;;;5028393;28;10163;-68
2023/08/17 21:38:36;;;;;;;;;20.67;20.33;;;;;;;;5031480;28;8803;-69
2023/08/17 21:41:01;;;;;;;;;19.00;18.67;;;;;;;;5023864;28;8840;-67
2023/08/17 21:43:27;;;;;;;;;31.00;28.67;;;;;;;;5031525;28;8824;-66
2023/08/17 21:45:56;;;;;;;;;24.00;21.00;;;;;;;;5031517;28;8855;-67
2023/08/17 21:48:21;;;;;;;;;46.50;37.25;;;;;;;;5031222;28;8966;-68
2023/08/17 21:50:47;;;;;;;;;29.67;26.33;;;;;;;;5029247;28;10312;-68
2023/08/17 21:53:13;;;;;;;;;39.25;33.50;;;;;;;;5031613;28;8815;-68
2023/08/17 21:55:43;;;;;;;;;19.50;18.00;;;;;;;;5031615;28;8867;-70
2023/08/17 21:58:08;;;;;;;;;17.50;17.00;;;;;;;;5028770;28;8840;-67
2023/08/17 22:00:34;;;;;;;;;23.67;21.33;;;;;;;;5029717;28;8812;-71
2023/08/17 22:03:04;;;;;;;;;26.33;23.67;;;;;;;;5029774;28;9526;-71
2023/08/17 22:05:29;;;;;;;;;23.00;23.00;;;;;;;;5030743;28;9449;-71
2023/08/17 22:07:54;;;;;;;;;31.00;29.25;;;;;;;;5030209;28;9898;-71
2023/08/17 22:10:22;;;;;;;;;24.67;22.33;;;;;;;;5030701;28;8894;-71
2023/08/17 22:12:47;;;;;;;;;23.33;22.33;;;;;;;;5029770;28;8939;-71
2023/08/17 22:15:13;;;;;;;;;26.00;23.00;;;;;;;;5030861;28;8996;-71
2023/08/17 22:17:38;;;;;;;;;38.00;32.25;;;;;;;;5030940;28;8848;-71
2023/08/17 22:20:03;;;;;;;;;18.00;17.67;;;;;;;;5030873;28;9637;-71
2023/08/17 22:22:29;;;;;;;;;21.00;20.67;;;;;;;;5030993;28;8820;-70
2023/08/17 22:24:54;;;;;;;;;22.33;21.00;;;;;;;;5030921;28;8811;-71
2023/08/17 22:27:20;;;;;;;;;20.33;20.00;;;;;;;;5029572;28;8812;-71
2023/08/17 22:29:45;;;;;;;;;31.67;29.00;;;;;;;;5031293;28;8886;-72
2023/08/17 22:32:10;;;;;;;;;27.00;26.00;;;;;;;;5031184;28;8808;-71
2023/08/17 22:34:35;;;;;;;;;24.33;23.00;;;;;;;;5029944;28;8947;-71
2023/08/17 22:37:01;;;;;;;;;31.50;29.25;;;;;;;;5031261;28;8855;-71
2023/08/17 22:39:26;;;;;;;;;22.67;22.67;;;;;;;;5030570;28;8900;-70
2023/08/17 22:41:51;;;;;;;;;27.67;26.67;;;;;;;;5030399;28;8784;-71
2023/08/17 22:44:16;;;;;;;;;27.67;25.67;;;;;;;;5030815;28;8772;-70
2023/08/17 22:46:42;;;;;;;;;41.50;34.50;;;;;;;;5030563;28;8804;-72
2023/08/17 22:49:07;;;;;;;;;27.33;24.67;;;;;;;;5030858;28;8788;-72
2023/08/17 22:51:32;;;;;;;;;39.00;34.00;;;;;;;;5030814;28;8961;-72
2023/08/17 22:53:58;;;;;;;;;24.67;24.67;;;;;;;;5029516;28;8796;-72
2023/08/17 22:56:24;;;;;;;;;27.67;27.33;;;;;;;;5030967;28;9033;-70
2023/08/17 22:58:49;;;;;;;;;36.25;31.00;;;;;;;;5030267;28;9279;-72
2023/08/17 23:01:14;;;;;;;;;25.67;24.33;;;;;;;;5030151;28;8811;-71
2023/08/17 23:03:40;;;;;;;;;19.00;19.00;;;;;;;;5030117;28;8804;-71
2023/08/17 23:06:05;;;;;;;;;21.33;20.33;;;;;;;;5030546;28;9643;-72
2023/08/17 23:08:30;;;;;;;;;20.00;17.00;;;;;;;;5029047;28;8815;-72
2023/08/17 23:10:59;;;;;;;;;19.33;18.00;;;;;;;;5028944;28;8832;-72
2023/08/17 23:13:24;;;;;;;;;21.00;21.00;;;;;;;;5030142;28;8796;-72
2023/08/17 23:15:50;;;;;;;;;27.25;27.00;;;;;;;;5030285;28;8918;-72
2023/08/17 23:18:15;;;;;;;;;21.33;20.67;;;;;;;;5028724;28;8994;-71
2023/08/17 23:20:40;;;;;;;;;23.00;22.00;;;;;;;;5030199;28;8788;-72
2023/08/17 23:23:06;;;;;;;;;23.67;20.00;;;;;;;;5029741;28;8796;-71
2023/08/17 23:25:31;;;;;;;;;19.33;19.33;;;;;;;;5028825;28;8831;-72
2023/08/17 23:27:56;;;;;;;;;20.00;20.00;;;;;;;;5030124;28;8811;-71
2023/08/17 23:30:22;;;;;;;;;19.67;17.00;;;;;;;;5030084;28;8792;-71
2023/08/17 23:32:47;;;;;;;;;22.33;20.67;;;;;;;;5030286;28;8807;-70
2023/08/17 23:35:12;;;;;;;;;24.00;24.00;;;;;;;;5029983;28;8913;-71
2023/08/17 23:37:37;;;;;;;;;27.67;25.00;;;;;;;;5028494;28;8843;-72
2023/08/17 23:40:03;;;;;;;;;24.67;20.00;;;;;;;;5029922;28;8914;-72
2023/08/17 23:42:29;;;;;;;;;29.50;27.25;;;;;;;;5029219;28;8920;-72
2023/08/17 23:44:54;;;;;;;;;26.25;25.00;;;;;;;;5029842;28;10171;-72
2023/08/17 23:47:19;;;;;;;;;31.25;28.00;;;;;;;;5028445;28;8931;-72
2023/08/17 23:49:44;;;;;;;;;27.75;25.25;;;;;;;;5029742;28;8804;-72
2023/08/17 23:52:10;;;;;;;;;38.75;32.25;;;;;;;;5029458;28;8788;-72
2023/08/17 23:54:35;;;;;;;;;27.67;24.33;;;;;;;;5029679;28;8796;-72
2023/08/17 23:57:01;;;;;;;;;33.75;32.00;;;;;;;;5029816;28;8831;-72
2023/08/17 23:59:26;;;;;;;;;31.75;29.50;;;;;;;;5029077;28;8839;-72
